sensor_id;sensor_type;location;lat;lon;timestamp;P1;durP1;ratioP1;P2;durP2;ratioP2
78443;SDS011;67739;52.986;8.894;2023-04-23T00:44:46;4.07;;;2.05;;
78443;SDS011;67739;52.986;8.894;2023-04-23T02:31:18;6.05;;;2.95;;
78443;SDS011;67739;52.986;8.894;2023-04-23T07:27:54;8.35;;;4.22;;
78443;SDS011;67739;52.986;8.894;2023-04-23T07:30:19;11.00;;;4.10;;
78443;SDS011;67739;52.986;8.894;2023-04-23T07:32:52;10.50;;;4.88;;
78443;SDS011;67739;52.986;8.894;2023-04-23T07:35:24;7.63;;;4.13;;
78443;SDS011;67739;52.986;8.894;2023-04-23T07:38:18;6.07;;;2.83;;
78443;SDS011;67739;52.986;8.894;2023-04-23T07:40:43;10.68;;;5.15;;
78443;SDS011;67739;52.986;8.894;2023-04-23T07:43:12;8.32;;;4.00;;
78443;SDS011;67739;52.986;8.894;2023-04-23T07:45:38;10.82;;;5.53;;
78443;SDS011;67739;52.986;8.894;2023-04-23T07:48:03;8.65;;;4.68;;
78443;SDS011;67739;52.986;8.894;2023-04-23T07:50:29;9.38;;;4.95;;
78443;SDS011;67739;52.986;8.894;2023-04-23T07:52:54;11.82;;;5.50;;
78443;SDS011;67739;52.986;8.894;2023-04-23T07:55:20;8.18;;;4.00;;
78443;SDS011;67739;52.986;8.894;2023-04-23T07:57:45;7.80;;;3.55;;
78443;SDS011;67739;52.986;8.894;2023-04-23T08:00:11;10.80;;;5.78;;
78443;SDS011;67739;52.986;8.894;2023-04-23T08:02:36;11.25;;;5.68;;
78443;SDS011;67739;52.986;8.894;2023-04-23T08:05:02;12.82;;;6.47;;
78443;SDS011;67739;52.986;8.894;2023-04-23T08:07:27;9.50;;;5.45;;
78443;SDS011;67739;52.986;8.894;2023-04-23T08:09:53;12.88;;;5.88;;
78443;SDS011;67739;52.986;8.894;2023-04-23T08:12:19;8.10;;;4.72;;
78443;SDS011;67739;52.986;8.894;2023-04-23T08:14:45;15.68;;;7.00;;
78443;SDS011;67739;52.986;8.894;2023-04-23T08:17:11;11.95;;;5.93;;
78443;SDS011;67739;52.986;8.894;2023-04-23T08:19:36;9.70;;;5.25;;
78443;SDS011;67739;52.986;8.894;2023-04-23T08:22:02;10.40;;;4.95;;
78443;SDS011;67739;52.986;8.894;2023-04-23T08:24:28;12.25;;;5.35;;
78443;SDS011;67739;52.986;8.894;2023-04-23T08:26:53;8.88;;;4.07;;
78443;SDS011;67739;52.986;8.894;2023-04-23T08:29:19;12.60;;;5.75;;
78443;SDS011;67739;52.986;8.894;2023-04-23T08:31:44;9.57;;;4.28;;
78443;SDS011;67739;52.986;8.894;2023-04-23T08:34:10;8.90;;;4.45;;
78443;SDS011;67739;52.986;8.894;2023-04-23T08:36:35;9.15;;;4.07;;
78443;SDS011;67739;52.986;8.894;2023-04-23T08:39:04;10.55;;;4.45;;
78443;SDS011;67739;52.986;8.894;2023-04-23T08:41:38;10.15;;;5.10;;
78443;SDS011;67739;52.986;8.894;2023-04-23T08:47:13;10.35;;;4.53;;
78443;SDS011;67739;52.986;8.894;2023-04-23T08:49:51;9.63;;;4.22;;
78443;SDS011;67739;52.986;8.894;2023-04-23T08:52:21;10.50;;;3.90;;
78443;SDS011;67739;52.986;8.894;2023-04-23T08:55:12;10.00;;;4.22;;
78443;SDS011;67739;52.986;8.894;2023-04-23T09:04:15;7.68;;;3.10;;
78443;SDS011;67739;52.986;8.894;2023-04-23T09:06:41;9.32;;;4.20;;
78443;SDS011;67739;52.986;8.894;2023-04-23T09:09:07;7.70;;;3.70;;
78443;SDS011;67739;52.986;8.894;2023-04-23T09:11:34;10.02;;;4.47;;
78443;SDS011;67739;52.986;8.894;2023-04-23T09:14:01;11.10;;;4.95;;
78443;SDS011;67739;52.986;8.894;2023-04-23T09:16:26;9.43;;;4.10;;
78443;SDS011;67739;52.986;8.894;2023-04-23T09:18:52;10.23;;;3.92;;
78443;SDS011;67739;52.986;8.894;2023-04-23T09:21:18;9.23;;;4.22;;
78443;SDS011;67739;52.986;8.894;2023-04-23T09:23:44;10.75;;;4.88;;
78443;SDS011;67739;52.986;8.894;2023-04-23T09:26:10;11.20;;;4.47;;
78443;SDS011;67739;52.986;8.894;2023-04-23T09:28:44;10.82;;;4.32;;
78443;SDS011;67739;52.986;8.894;2023-04-23T09:31:13;11.10;;;4.68;;
78443;SDS011;67739;52.986;8.894;2023-04-23T09:33:39;10.80;;;4.93;;
78443;SDS011;67739;52.986;8.894;2023-04-23T09:36:13;10.02;;;3.60;;
78443;SDS011;67739;52.986;8.894;2023-04-23T09:38:42;8.07;;;3.42;;
78443;SDS011;67739;52.986;8.894;2023-04-23T09:43:47;8.35;;;3.00;;
78443;SDS011;67739;52.986;8.894;2023-04-23T09:46:12;9.25;;;2.90;;
78443;SDS011;67739;52.986;8.894;2023-04-23T09:48:41;8.73;;;3.63;;
78443;SDS011;67739;52.986;8.894;2023-04-23T09:51:07;7.95;;;3.10;;
78443;SDS011;67739;52.986;8.894;2023-04-23T09:53:42;9.77;;;3.30;;
78443;SDS011;67739;52.986;8.894;2023-04-23T09:56:09;8.20;;;2.58;;
78443;SDS011;67739;52.986;8.894;2023-04-23T09:58:35;9.15;;;3.55;;
78443;SDS011;67739;52.986;8.894;2023-04-23T10:01:05;7.45;;;2.65;;
78443;SDS011;67739;52.986;8.894;2023-04-23T10:03:34;9.32;;;3.42;;
78443;SDS011;67739;52.986;8.894;2023-04-23T10:05:59;8.25;;;2.97;;
78443;SDS011;67739;52.986;8.894;2023-04-23T10:08:25;6.93;;;2.53;;
78443;SDS011;67739;52.986;8.894;2023-04-23T10:10:51;8.30;;;3.42;;
78443;SDS011;67739;52.986;8.894;2023-04-23T10:13:17;10.65;;;4.38;;
78443;SDS011;67739;52.986;8.894;2023-04-23T10:15:43;8.75;;;3.83;;
78443;SDS011;67739;52.986;8.894;2023-04-23T10:18:11;8.75;;;3.60;;
78443;SDS011;67739;52.986;8.894;2023-04-23T10:20:39;8.05;;;2.58;;
78443;SDS011;67739;52.986;8.894;2023-04-23T10:23:06;10.73;;;3.80;;
78443;SDS011;67739;52.986;8.894;2023-04-23T10:25:33;8.57;;;4.00;;
78443;SDS011;67739;52.986;8.894;2023-04-23T10:28:02;10.02;;;3.63;;
78443;SDS011;67739;52.986;8.894;2023-04-23T10:30:28;7.63;;;2.80;;
78443;SDS011;67739;52.986;8.894;2023-04-23T10:32:54;8.75;;;3.45;;
78443;SDS011;67739;52.986;8.894;2023-04-23T10:35:21;8.10;;;2.67;;
78443;SDS011;67739;52.986;8.894;2023-04-23T10:37:46;8.48;;;3.45;;
78443;SDS011;67739;52.986;8.894;2023-04-23T10:40:13;9.88;;;3.38;;
78443;SDS011;67739;52.986;8.894;2023-04-23T10:42:42;8.68;;;3.45;;
78443;SDS011;67739;52.986;8.894;2023-04-23T10:45:15;8.35;;;3.30;;
78443;SDS011;67739;52.986;8.894;2023-04-23T10:47:42;7.40;;;3.00;;
78443;SDS011;67739;52.986;8.894;2023-04-23T10:50:18;8.88;;;3.83;;
78443;SDS011;67739;52.986;8.894;2023-04-23T10:52:45;7.30;;;2.65;;
78443;SDS011;67739;52.986;8.894;2023-04-23T10:55:48;8.35;;;3.00;;
78443;SDS011;67739;52.986;8.894;2023-04-23T10:58:06;6.10;;;2.03;;
78443;SDS011;67739;52.986;8.894;2023-04-23T11:00:44;8.20;;;2.78;;
78443;SDS011;67739;52.986;8.894;2023-04-23T11:06:04;9.52;;;3.22;;
78443;SDS011;67739;52.986;8.894;2023-04-23T11:08:30;7.40;;;3.40;;
78443;SDS011;67739;52.986;8.894;2023-04-23T11:11:00;7.63;;;2.70;;
78443;SDS011;67739;52.986;8.894;2023-04-23T11:13:27;8.40;;;3.92;;
78443;SDS011;67739;52.986;8.894;2023-04-23T11:19:01;7.85;;;2.50;;
78443;SDS011;67739;52.986;8.894;2023-04-23T11:24:37;7.63;;;2.45;;
78443;SDS011;67739;52.986;8.894;2023-04-23T11:27:06;8.20;;;2.30;;
78443;SDS011;67739;52.986;8.894;2023-04-23T11:29:43;7.38;;;2.63;;
78443;SDS011;67739;52.986;8.894;2023-04-23T11:32:09;8.43;;;3.22;;
78443;SDS011;67739;52.986;8.894;2023-04-23T11:34:44;7.05;;;2.95;;
78443;SDS011;67739;52.986;8.894;2023-04-23T11:37:11;6.82;;;2.80;;
78443;SDS011;67739;52.986;8.894;2023-04-23T11:39:38;6.60;;;2.60;;
78443;SDS011;67739;52.986;8.894;2023-04-23T11:42:14;7.03;;;2.60;;
78443;SDS011;67739;52.986;8.894;2023-04-23T11:44:41;8.80;;;3.15;;
78443;SDS011;67739;52.986;8.894;2023-04-23T11:47:09;7.90;;;2.95;;
78443;SDS011;67739;52.986;8.894;2023-04-23T11:49:39;6.82;;;2.83;;
78443;SDS011;67739;52.986;8.894;2023-04-23T11:52:06;7.20;;;2.67;;
78443;SDS011;67739;52.986;8.894;2023-04-23T11:54:32;7.05;;;2.60;;
78443;SDS011;67739;52.986;8.894;2023-04-23T11:56:58;7.57;;;2.65;;
78443;SDS011;67739;52.986;8.894;2023-04-23T11:59:24;7.55;;;2.65;;
78443;SDS011;67739;52.986;8.894;2023-04-23T12:01:51;5.60;;;1.90;;
78443;SDS011;67739;52.986;8.894;2023-04-23T12:04:22;6.22;;;1.83;;
78443;SDS011;67739;52.986;8.894;2023-04-23T12:06:52;5.43;;;1.50;;
78443;SDS011;67739;52.986;8.894;2023-04-23T12:09:19;5.82;;;1.80;;
78443;SDS011;67739;52.986;8.894;2023-04-23T12:11:46;4.53;;;1.70;;
78443;SDS011;67739;52.986;8.894;2023-04-23T12:14:14;6.65;;;2.90;;
78443;SDS011;67739;52.986;8.894;2023-04-23T12:19:17;4.22;;;1.27;;
78443;SDS011;67739;52.986;8.894;2023-04-23T12:21:57;4.25;;;1.75;;
78443;SDS011;67739;52.986;8.894;2023-04-23T12:24:27;4.78;;;1.45;;
78443;SDS011;67739;52.986;8.894;2023-04-23T12:26:54;5.68;;;1.55;;
78443;SDS011;67739;52.986;8.894;2023-04-23T12:29:22;5.70;;;1.65;;
78443;SDS011;67739;52.986;8.894;2023-04-23T12:31:49;3.85;;;1.65;;
78443;SDS011;67739;52.986;8.894;2023-04-23T12:34:19;4.93;;;2.10;;
78443;SDS011;67739;52.986;8.894;2023-04-23T12:36:53;5.07;;;1.50;;
78443;SDS011;67739;52.986;8.894;2023-04-23T12:39:29;4.57;;;1.13;;
78443;SDS011;67739;52.986;8.894;2023-04-23T12:44:25;4.70;;;1.63;;
78443;SDS011;67739;52.986;8.894;2023-04-23T12:46:57;4.93;;;1.73;;
78443;SDS011;67739;52.986;8.894;2023-04-23T12:49:27;5.32;;;1.75;;
78443;SDS011;67739;52.986;8.894;2023-04-23T12:51:54;4.38;;;1.10;;
78443;SDS011;67739;52.986;8.894;2023-04-23T12:54:23;4.85;;;1.13;;
78443;SDS011;67739;52.986;8.894;2023-04-23T12:56:49;5.28;;;1.55;;
78443;SDS011;67739;52.986;8.894;2023-04-23T12:59:15;3.10;;;1.10;;
78443;SDS011;67739;52.986;8.894;2023-04-23T13:01:40;4.85;;;1.05;;
78443;SDS011;67739;52.986;8.894;2023-04-23T13:04:06;4.30;;;1.20;;
78443;SDS011;67739;52.986;8.894;2023-04-23T13:06:31;3.30;;;0.60;;
78443;SDS011;67739;52.986;8.894;2023-04-23T13:08:57;2.80;;;0.80;;
78443;SDS011;67739;52.986;8.894;2023-04-23T13:11:24;3.65;;;0.85;;
78443;SDS011;67739;52.986;8.894;2023-04-23T13:13:49;3.00;;;0.70;;
78443;SDS011;67739;52.986;8.894;2023-04-23T13:16:15;2.83;;;0.85;;
78443;SDS011;67739;52.986;8.894;2023-04-23T13:18:41;6.32;;;1.05;;
78443;SDS011;67739;52.986;8.894;2023-04-23T13:21:06;4.22;;;0.82;;
78443;SDS011;67739;52.986;8.894;2023-04-23T13:23:33;3.05;;;0.77;;
78443;SDS011;67739;52.986;8.894;2023-04-23T13:25:58;3.50;;;0.93;;
78443;SDS011;67739;52.986;8.894;2023-04-23T13:28:24;2.45;;;0.90;;
78443;SDS011;67739;52.986;8.894;2023-04-23T13:30:49;1.98;;;0.75;;
78443;SDS011;67739;52.986;8.894;2023-04-23T13:33:15;4.15;;;1.10;;
78443;SDS011;67739;52.986;8.894;2023-04-23T13:35:40;3.58;;;0.77;;
78443;SDS011;67739;52.986;8.894;2023-04-23T13:38:05;4.13;;;1.15;;
78443;SDS011;67739;52.986;8.894;2023-04-23T13:40:31;3.92;;;1.30;;
78443;SDS011;67739;52.986;8.894;2023-04-23T13:42:56;4.20;;;1.40;;
78443;SDS011;67739;52.986;8.894;2023-04-23T13:45:22;3.85;;;1.35;;
78443;SDS011;67739;52.986;8.894;2023-04-23T13:47:47;5.68;;;2.00;;
78443;SDS011;67739;52.986;8.894;2023-04-23T13:50:12;3.95;;;1.42;;
78443;SDS011;67739;52.986;8.894;2023-04-23T13:52:38;4.32;;;1.63;;
78443;SDS011;67739;52.986;8.894;2023-04-23T13:55:04;3.15;;;0.95;;
78443;SDS011;67739;52.986;8.894;2023-04-23T13:57:31;3.88;;;1.25;;
78443;SDS011;67739;52.986;8.894;2023-04-23T13:59:57;3.50;;;0.80;;
78443;SDS011;67739;52.986;8.894;2023-04-23T14:02:24;3.25;;;1.15;;
78443;SDS011;67739;52.986;8.894;2023-04-23T14:04:49;5.80;;;1.52;;
78443;SDS011;67739;52.986;8.894;2023-04-23T14:07:14;4.60;;;0.90;;
78443;SDS011;67739;52.986;8.894;2023-04-23T14:09:40;3.15;;;1.02;;
78443;SDS011;67739;52.986;8.894;2023-04-23T14:12:05;7.38;;;0.85;;
78443;SDS011;67739;52.986;8.894;2023-04-23T14:14:30;4.40;;;1.05;;
78443;SDS011;67739;52.986;8.894;2023-04-23T14:16:56;3.90;;;1.05;;
78443;SDS011;67739;52.986;8.894;2023-04-23T14:19:21;1.88;;;0.45;;
78443;SDS011;67739;52.986;8.894;2023-04-23T14:21:46;3.15;;;0.80;;
78443;SDS011;67739;52.986;8.894;2023-04-23T14:24:21;4.38;;;1.25;;
78443;SDS011;67739;52.986;8.894;2023-04-23T14:26:51;3.47;;;0.98;;
78443;SDS011;67739;52.986;8.894;2023-04-23T14:31:54;1.70;;;0.60;;
78443;SDS011;67739;52.986;8.894;2023-04-23T14:34:20;5.03;;;1.08;;
78443;SDS011;67739;52.986;8.894;2023-04-23T14:36:45;2.15;;;0.73;;
78443;SDS011;67739;52.986;8.894;2023-04-23T14:39:13;3.17;;;1.00;;
78443;SDS011;67739;52.986;8.894;2023-04-23T14:41:38;4.20;;;1.02;;
78443;SDS011;67739;52.986;8.894;2023-04-23T14:44:05;3.22;;;0.98;;
78443;SDS011;67739;52.986;8.894;2023-04-23T14:46:30;3.75;;;0.90;;
78443;SDS011;67739;52.986;8.894;2023-04-23T14:48:56;3.25;;;1.05;;
78443;SDS011;67739;52.986;8.894;2023-04-23T14:51:21;1.90;;;0.55;;
78443;SDS011;67739;52.986;8.894;2023-04-23T14:53:47;1.67;;;0.50;;
78443;SDS011;67739;52.986;8.894;2023-04-23T14:56:12;2.10;;;0.60;;
78443;SDS011;67739;52.986;8.894;2023-04-23T14:58:38;4.22;;;0.73;;
78443;SDS011;67739;52.986;8.894;2023-04-23T15:01:03;1.77;;;0.40;;
78443;SDS011;67739;52.986;8.894;2023-04-23T15:03:29;1.48;;;0.40;;
78443;SDS011;67739;52.986;8.894;2023-04-23T15:05:54;0.50;;;0.20;;
78443;SDS011;67739;52.986;8.894;2023-04-23T15:08:20;0.90;;;0.30;;
78443;SDS011;67739;52.986;8.894;2023-04-23T15:10:45;1.67;;;0.30;;
78443;SDS011;67739;52.986;8.894;2023-04-23T15:15:43;2.97;;;0.50;;
78443;SDS011;67739;52.986;8.894;2023-04-23T15:18:14;0.38;;;0.17;;
78443;SDS011;67739;52.986;8.894;2023-04-23T15:20:40;2.13;;;0.70;;
78443;SDS011;67739;52.986;8.894;2023-04-23T15:23:06;1.42;;;0.40;;
78443;SDS011;67739;52.986;8.894;2023-04-23T15:25:31;1.67;;;0.40;;
78443;SDS011;67739;52.986;8.894;2023-04-23T15:27:58;1.00;;;0.20;;
78443;SDS011;67739;52.986;8.894;2023-04-23T15:30:24;0.35;;;0.15;;
78443;SDS011;67739;52.986;8.894;2023-04-23T15:32:51;0.32;;;0.10;;
78443;SDS011;67739;52.986;8.894;2023-04-23T15:35:19;0.68;;;0.20;;
78443;SDS011;67739;52.986;8.894;2023-04-23T15:37:45;0.43;;;0.10;;
78443;SDS011;67739;52.986;8.894;2023-04-23T15:40:10;0.60;;;0.08;;
78443;SDS011;67739;52.986;8.894;2023-04-23T15:42:36;0.52;;;0.10;;
78443;SDS011;67739;52.986;8.894;2023-04-23T15:45:04;1.33;;;0.13;;
78443;SDS011;67739;52.986;8.894;2023-04-23T15:47:30;0.45;;;0.05;;
78443;SDS011;67739;52.986;8.894;2023-04-23T15:49:55;0.90;;;0.20;;
78443;SDS011;67739;52.986;8.894;2023-04-23T15:52:21;1.90;;;0.20;;
78443;SDS011;67739;52.986;8.894;2023-04-23T15:54:46;0.70;;;0.20;;
78443;SDS011;67739;52.986;8.894;2023-04-23T15:57:12;0.95;;;0.20;;
78443;SDS011;67739;52.986;8.894;2023-04-23T15:59:37;0.82;;;0.10;;
78443;SDS011;67739;52.986;8.894;2023-04-23T16:02:03;1.15;;;0.15;;
78443;SDS011;67739;52.986;8.894;2023-04-23T16:04:28;0.63;;;0.10;;
78443;SDS011;67739;52.986;8.894;2023-04-23T16:06:54;0.63;;;0.10;;
78443;SDS011;67739;52.986;8.894;2023-04-23T16:09:19;1.02;;;0.30;;
78443;SDS011;67739;52.986;8.894;2023-04-23T16:11:45;0.82;;;0.17;;
78443;SDS011;67739;52.986;8.894;2023-04-23T16:14:10;1.90;;;0.30;;
78443;SDS011;67739;52.986;8.894;2023-04-23T16:16:35;0.60;;;0.20;;
78443;SDS011;67739;52.986;8.894;2023-04-23T16:19:02;0.98;;;0.30;;
78443;SDS011;67739;52.986;8.894;2023-04-23T16:21:27;0.35;;;0.10;;
78443;SDS011;67739;52.986;8.894;2023-04-23T16:23:53;1.50;;;0.20;;
78443;SDS011;67739;52.986;8.894;2023-04-23T16:26:18;1.85;;;0.20;;
78443;SDS011;67739;52.986;8.894;2023-04-23T16:28:44;0.98;;;0.20;;
78443;SDS011;67739;52.986;8.894;2023-04-23T16:31:10;1.58;;;0.40;;
78443;SDS011;67739;52.986;8.894;2023-04-23T16:33:35;1.95;;;0.60;;
78443;SDS011;67739;52.986;8.894;2023-04-23T16:36:01;1.15;;;0.20;;
78443;SDS011;67739;52.986;8.894;2023-04-23T16:38:26;1.30;;;0.40;;
78443;SDS011;67739;52.986;8.894;2023-04-23T16:40:51;3.10;;;0.43;;
78443;SDS011;67739;52.986;8.894;2023-04-23T16:43:17;1.08;;;0.40;;
78443;SDS011;67739;52.986;8.894;2023-04-23T16:45:42;0.98;;;0.32;;
78443;SDS011;67739;52.986;8.894;2023-04-23T16:48:08;0.40;;;0.10;;
78443;SDS011;67739;52.986;8.894;2023-04-23T16:50:36;0.95;;;0.17;;
78443;SDS011;67739;52.986;8.894;2023-04-23T16:53:02;2.13;;;0.35;;
78443;SDS011;67739;52.986;8.894;2023-04-23T16:55:27;1.58;;;0.70;;
78443;SDS011;67739;52.986;8.894;2023-04-23T16:57:52;0.47;;;0.20;;
78443;SDS011;67739;52.986;8.894;2023-04-23T17:00:18;0.93;;;0.20;;
78443;SDS011;67739;52.986;8.894;2023-04-23T17:02:43;0.60;;;0.20;;
78443;SDS011;67739;52.986;8.894;2023-04-23T17:05:09;0.25;;;0.00;;
78443;SDS011;67739;52.986;8.894;2023-04-23T17:07:34;0.10;;;0.00;;
78443;SDS011;67739;52.986;8.894;2023-04-23T17:10:00;0.22;;;0.03;;
78443;SDS011;67739;52.986;8.894;2023-04-23T17:12:25;0.25;;;0.03;;
78443;SDS011;67739;52.986;8.894;2023-04-23T17:14:50;0.70;;;0.00;;
78443;SDS011;67739;52.986;8.894;2023-04-23T17:17:16;0.20;;;0.00;;
78443;SDS011;67739;52.986;8.894;2023-04-23T17:19:41;3.10;;;0.20;;
78443;SDS011;67739;52.986;8.894;2023-04-23T17:22:07;0.45;;;0.05;;
78443;SDS011;67739;52.986;8.894;2023-04-23T17:24:34;0.80;;;0.10;;
78443;SDS011;67739;52.986;8.894;2023-04-23T17:26:59;0.47;;;0.10;;
78443;SDS011;67739;52.986;8.894;2023-04-23T17:29:25;0.28;;;0.00;;
78443;SDS011;67739;52.986;8.894;2023-04-23T17:31:51;0.03;;;0.00;;
78443;SDS011;67739;52.986;8.894;2023-04-23T17:34:16;0.55;;;0.10;;
78443;SDS011;67739;52.986;8.894;2023-04-23T17:36:41;0.47;;;0.08;;
78443;SDS011;67739;52.986;8.894;2023-04-23T17:39:07;1.58;;;0.50;;
78443;SDS011;67739;52.986;8.894;2023-04-23T17:41:32;0.30;;;0.05;;
78443;SDS011;67739;52.986;8.894;2023-04-23T17:43:58;0.60;;;0.32;;
78443;SDS011;67739;52.986;8.894;2023-04-23T17:46:23;0.35;;;0.08;;
78443;SDS011;67739;52.986;8.894;2023-04-23T17:48:48;0.85;;;0.10;;
78443;SDS011;67739;52.986;8.894;2023-04-23T17:51:14;0.88;;;0.10;;
78443;SDS011;67739;52.986;8.894;2023-04-23T17:53:39;1.45;;;0.15;;
78443;SDS011;67739;52.986;8.894;2023-04-23T17:56:06;0.75;;;0.10;;
78443;SDS011;67739;52.986;8.894;2023-04-23T17:58:31;0.10;;;0.00;;
78443;SDS011;67739;52.986;8.894;2023-04-23T18:00:57;0.68;;;0.20;;
78443;SDS011;67739;52.986;8.894;2023-04-23T18:03:23;0.85;;;0.30;;
78443;SDS011;67739;52.986;8.894;2023-04-23T18:05:49;0.57;;;0.05;;
78443;SDS011;67739;52.986;8.894;2023-04-23T18:08:14;0.22;;;0.08;;
78443;SDS011;67739;52.986;8.894;2023-04-23T18:10:44;0.45;;;0.10;;
78443;SDS011;67739;52.986;8.894;2023-04-23T18:13:10;0.28;;;0.10;;
78443;SDS011;67739;52.986;8.894;2023-04-23T18:15:36;0.10;;;0.00;;
78443;SDS011;67739;52.986;8.894;2023-04-23T18:18:08;3.60;;;0.30;;
78443;SDS011;67739;52.986;8.894;2023-04-23T21:21:29;0.65;;;0.20;;
78443;SDS011;67739;52.986;8.894;2023-04-23T21:23:56;1.98;;;0.50;;
78443;SDS011;67739;52.986;8.894;2023-04-23T21:26:25;1.33;;;0.40;;
